createdAt,value
2018-12-06T00:01:11.117Z,4.85
2018-12-06T00:03:42.747Z,3.70
2018-12-06T00:06:15.499Z,4.60
2018-12-06T00:08:46.837Z,4.07
2018-12-06T00:11:23.580Z,3.77
2018-12-06T00:13:56.907Z,4.53
2018-12-06T00:16:39.285Z,5.50
2018-12-06T00:19:11.005Z,4.30
2018-12-06T00:21:44.090Z,4.30
2018-12-06T00:24:17.829Z,3.92
2018-12-06T00:26:47.867Z,4.28
2018-12-06T00:29:23.146Z,4.53
2018-12-06T00:31:54.439Z,4.40
2018-12-06T00:34:28.530Z,4.60
2018-12-06T00:37:05.086Z,4.43
2018-12-06T00:39:38.087Z,4.20
2018-12-06T00:42:12.999Z,4.47
2018-12-06T00:44:46.078Z,4.00
2018-12-06T00:47:18.652Z,5.63
2018-12-06T00:50:08.487Z,4.23
2018-12-06T00:52:39.778Z,6.20
2018-12-06T00:55:11.560Z,5.78
2018-12-06T00:57:42.755Z,4.60
2018-12-06T01:00:12.379Z,4.47
2018-12-06T01:02:43.027Z,4.80
2018-12-06T01:05:15.626Z,4.37
2018-12-06T01:07:51.502Z,4.20
2018-12-06T01:10:26.459Z,4.33
2018-12-06T01:13:06.344Z,5.28
2018-12-06T01:15:40.430Z,4.73
2018-12-06T01:18:13.228Z,5.43
2018-12-06T01:20:51.000Z,5.70
2018-12-06T01:23:24.097Z,4.87
2018-12-06T01:25:58.045Z,5.37
2018-12-06T01:28:31.863Z,5.50
2018-12-06T01:31:04.438Z,4.60
2018-12-06T01:33:42.938Z,5.22
2018-12-06T01:36:19.236Z,4.33
2018-12-06T01:38:53.100Z,5.05
2018-12-06T01:41:25.006Z,4.95
2018-12-06T01:43:55.488Z,5.53
2018-12-06T01:46:28.523Z,5.30
2018-12-06T01:49:03.672Z,5.77
2018-12-06T01:51:35.001Z,5.33
2018-12-06T01:54:09.836Z,6.30
2018-12-06T01:56:47.152Z,5.40
2018-12-06T01:59:20.678Z,5.70
2018-12-06T02:01:52.555Z,5.20
2018-12-06T02:04:26.394Z,5.70
2018-12-06T02:06:57.232Z,5.20
2018-12-06T02:09:29.753Z,4.93
2018-12-06T02:12:00.101Z,4.87
2018-12-06T02:14:32.501Z,5.30
2018-12-06T02:17:06.968Z,6.05
2018-12-06T02:19:44.164Z,5.03
2018-12-06T02:22:27.325Z,4.42
2018-12-06T02:25:00.255Z,5.27
2018-12-06T02:27:34.894Z,4.55
2018-12-06T02:30:08.369Z,4.53
2018-12-06T02:32:44.498Z,5.13
2018-12-06T02:35:17.045Z,7.03
2018-12-06T02:37:46.713Z,5.17
2018-12-06T02:40:18.852Z,5.93
2018-12-06T02:42:48.789Z,4.57
2018-12-06T02:45:19.474Z,5.62
2018-12-06T02:47:50.378Z,6.35
2018-12-06T02:50:22.695Z,5.07
2018-12-06T02:52:52.495Z,5.20
2018-12-06T02:55:24.800Z,5.73
2018-12-06T02:57:57.473Z,5.40
2018-12-06T03:00:32.112Z,5.73
2018-12-06T03:03:02.577Z,5.17
2018-12-06T03:05:38.972Z,5.33
2018-12-06T03:08:11.887Z,4.20
2018-12-06T03:10:43.320Z,5.65
2018-12-06T03:15:52.895Z,5.63
2018-12-06T03:18:24.520Z,5.10
2018-12-06T03:20:55.670Z,4.43
2018-12-06T03:23:25.295Z,5.10
2018-12-06T03:25:56.502Z,5.70
2018-12-06T03:28:29.221Z,4.70
2018-12-06T03:30:59.483Z,7.00
2018-12-06T03:33:29.422Z,6.17
2018-12-06T03:36:01.129Z,5.33
2018-12-06T03:38:31.388Z,4.87
2018-12-06T03:41:04.839Z,5.97
2018-12-06T03:43:35.570Z,5.75
2018-12-06T03:46:08.228Z,5.07
2018-12-06T03:48:40.855Z,5.00
2018-12-06T03:51:14.474Z,6.35
2018-12-06T03:53:45.006Z,6.10
2018-12-06T03:56:20.342Z,5.35
2018-12-06T03:58:55.905Z,7.20
2018-12-06T04:01:30.495Z,5.97
2018-12-06T04:04:00.387Z,6.40
2018-12-06T04:06:32.283Z,7.20
2018-12-06T04:11:58.546Z,7.67
2018-12-06T04:14:29.625Z,6.58
2018-12-06T04:17:03.907Z,6.10
2018-12-06T04:19:41.931Z,8.03
2018-12-06T04:22:15.653Z,5.95
2018-12-06T04:27:41.849Z,6.83
2018-12-06T04:30:12.865Z,6.93
2018-12-06T04:32:45.264Z,7.17
2018-12-06T04:35:18.550Z,6.80
2018-12-06T04:37:51.799Z,7.40
2018-12-06T04:40:24.462Z,7.17
2018-12-06T04:43:02.323Z,6.90
2018-12-06T04:45:34.522Z,7.17
2018-12-06T04:48:07.819Z,6.85
2018-12-06T04:50:39.869Z,7.60
2018-12-06T04:53:10.642Z,8.00
2018-12-06T04:55:47.386Z,6.87
2018-12-06T04:58:19.735Z,6.77
2018-12-06T05:00:50.066Z,7.13
2018-12-06T05:03:21.308Z,7.00
2018-12-06T05:05:50.958Z,6.53
2018-12-06T05:08:20.142Z,7.23
2018-12-06T05:10:49.108Z,7.33
2018-12-06T05:13:18.079Z,7.57
2018-12-06T05:15:47.169Z,6.67
2018-12-06T05:18:16.377Z,6.97
2018-12-06T05:20:45.534Z,7.08
2018-12-06T05:23:14.540Z,7.37
2018-12-06T05:25:43.548Z,7.80
2018-12-06T05:28:12.874Z,7.23
2018-12-06T05:33:26.520Z,6.40
2018-12-06T05:35:55.511Z,7.72
2018-12-06T05:38:24.579Z,5.83
2018-12-06T05:45:53.666Z,7.90
2018-12-06T05:48:22.808Z,7.33
2018-12-06T05:50:51.766Z,6.83
2018-12-06T05:53:21.173Z,7.03
2018-12-06T05:55:52.108Z,7.33
2018-12-06T05:58:23.136Z,7.83
2018-12-06T06:00:53.227Z,6.70
2018-12-06T06:03:25.290Z,7.93
2018-12-06T06:05:57.335Z,6.85
2018-12-06T06:08:31.026Z,7.00
2018-12-06T06:11:02.400Z,6.93
2018-12-06T06:13:34.576Z,6.17
2018-12-06T06:16:13.237Z,8.28
2018-12-06T06:18:45.533Z,6.87
2018-12-06T06:21:17.922Z,7.17
2018-12-06T06:23:53.574Z,7.03
2018-12-06T06:26:26.167Z,7.73
2018-12-06T06:29:02.805Z,7.57
2018-12-06T06:31:38.694Z,8.83
2018-12-06T06:34:13.304Z,8.08
2018-12-06T06:36:46.330Z,7.90
2018-12-06T06:39:19.671Z,8.00
2018-12-06T06:41:51.369Z,8.37
2018-12-06T06:44:25.208Z,6.62
2018-12-06T06:46:58.921Z,8.92
2018-12-06T06:49:32.345Z,8.20
2018-12-06T06:52:08.869Z,8.25
2018-12-06T06:54:43.067Z,8.20
2018-12-06T06:57:16.005Z,9.78
2018-12-06T07:02:37.184Z,8.07
2018-12-06T07:05:13.670Z,10.97
2018-12-06T07:07:45.855Z,8.65
2018-12-06T07:10:18.356Z,8.90
2018-12-06T07:12:51.164Z,7.33
2018-12-06T07:15:26.381Z,7.80
2018-12-06T07:18:01.642Z,7.73
2018-12-06T07:20:43.006Z,8.03
2018-12-06T07:23:19.361Z,7.80
2018-12-06T07:25:51.697Z,9.00
2018-12-06T07:28:27.392Z,7.97
2018-12-06T07:31:03.222Z,8.63
2018-12-06T07:33:35.529Z,10.00
2018-12-06T07:36:11.803Z,9.95
2018-12-06T07:38:45.561Z,10.80
2018-12-06T07:41:20.820Z,8.93
2018-12-06T07:43:55.289Z,8.63
2018-12-06T07:46:30.539Z,9.00
2018-12-06T07:49:09.615Z,10.60
2018-12-06T07:51:40.908Z,13.23
2018-12-06T07:54:13.959Z,13.62
2018-12-06T07:56:49.952Z,12.50
2018-12-06T07:59:24.754Z,11.57
2018-12-06T08:02:04.143Z,10.68
2018-12-06T08:04:40.916Z,11.40
2018-12-06T08:07:16.003Z,12.50
2018-12-06T08:09:58.497Z,10.40
2018-12-06T08:12:37.319Z,9.83
2018-12-06T08:15:10.143Z,10.90
2018-12-06T08:17:46.195Z,11.47
2018-12-06T08:20:20.723Z,13.07
2018-12-06T08:22:55.106Z,10.77
2018-12-06T08:25:30.680Z,12.53
2018-12-06T08:28:08.428Z,12.60
2018-12-06T08:30:47.467Z,11.10
2018-12-06T08:33:21.998Z,10.75
2018-12-06T08:35:55.036Z,12.87
2018-12-06T08:38:31.074Z,11.60
2018-12-06T08:41:07.271Z,11.00
2018-12-06T08:43:45.717Z,12.17
2018-12-06T08:46:20.989Z,15.97
2018-12-06T08:49:02.841Z,13.07
2018-12-06T08:51:34.494Z,11.77
2018-12-06T08:54:12.338Z,11.17
2018-12-06T08:56:55.369Z,11.45
2018-12-06T08:59:30.764Z,11.50
2018-12-06T09:02:11.028Z,11.37
2018-12-06T09:04:45.641Z,12.07
2018-12-06T09:07:24.056Z,11.70
2018-12-06T09:10:02.113Z,12.00
2018-12-06T09:12:35.480Z,10.97
2018-12-06T09:18:07.632Z,12.95
2018-12-06T09:20:47.069Z,11.73
2018-12-06T09:23:23.981Z,10.60
2018-12-06T09:26:00.374Z,10.80
2018-12-06T09:28:39.263Z,10.38
2018-12-06T09:31:24.530Z,13.17
2018-12-06T09:34:13.828Z,10.63
2018-12-06T09:36:54.113Z,12.50
2018-12-06T09:39:27.286Z,12.33
2018-12-06T09:42:06.252Z,11.26
2018-12-06T09:44:39.685Z,9.98
2018-12-06T09:47:15.708Z,11.53
2018-12-06T09:52:41.098Z,9.70
2018-12-06T10:14:37.375Z,9.70
2018-12-06T10:17:16.387Z,10.40
2018-12-06T10:19:50.530Z,10.18
2018-12-06T10:22:22.202Z,9.65
2018-12-06T10:24:56.868Z,8.93
2018-12-06T10:27:29.213Z,8.63
2018-12-06T10:29:59.704Z,9.37
2018-12-06T10:32:31.039Z,9.17
2018-12-06T10:35:06.825Z,10.57
2018-12-06T10:37:40.165Z,8.70
2018-12-06T10:40:14.820Z,8.50
2018-12-06T10:42:51.341Z,10.18
2018-12-06T10:45:29.669Z,8.63
2018-12-06T10:48:10.136Z,7.00
2018-12-06T10:50:45.982Z,7.07
2018-12-06T10:53:25.697Z,7.33
2018-12-06T10:56:01.582Z,7.55
2018-12-06T10:58:43.015Z,8.00
2018-12-06T11:04:40.881Z,5.80
2018-12-06T11:07:14.277Z,6.93
2018-12-06T11:09:52.467Z,5.83
2018-12-06T11:12:30.476Z,7.80
2018-12-06T11:15:13.642Z,6.77
2018-12-06T11:17:50.434Z,6.40
2018-12-06T11:20:26.857Z,7.57
2018-12-06T11:25:47.890Z,7.30
2018-12-06T11:28:27.227Z,6.00
2018-12-06T11:31:03.049Z,7.40
2018-12-06T11:33:38.484Z,6.60
2018-12-06T11:36:17.413Z,6.20
2018-12-06T11:38:49.644Z,6.78
2018-12-06T11:41:23.211Z,5.97
2018-12-06T11:44:02.841Z,5.90
2018-12-06T11:46:40.181Z,8.07
2018-12-06T11:49:12.869Z,6.00
2018-12-06T11:51:51.882Z,6.55
2018-12-06T11:54:28.162Z,7.60
2018-12-06T11:57:04.879Z,8.28
2018-12-06T11:59:38.907Z,7.65
2018-12-06T12:02:15.496Z,6.70
2018-12-06T12:04:51.040Z,6.60
2018-12-06T12:07:25.191Z,7.63
2018-12-06T12:10:01.351Z,7.30
2018-12-06T12:12:33.253Z,7.40
2018-12-06T12:15:09.754Z,7.33
2018-12-06T12:17:54.870Z,7.95
2018-12-06T12:23:21.584Z,6.80
2018-12-06T12:25:55.481Z,8.40
2018-12-06T12:28:34.511Z,9.23
2018-12-06T12:31:10.460Z,8.07
2018-12-06T12:33:47.182Z,7.87
2018-12-06T12:36:20.611Z,8.00
2018-12-06T12:38:58.924Z,8.90
2018-12-06T12:44:51.659Z,9.27
2018-12-06T12:47:27.943Z,8.67
2018-12-06T12:50:02.333Z,9.80
2018-12-06T12:52:35.344Z,8.55
2018-12-06T12:55:09.581Z,10.43
2018-12-06T12:57:47.478Z,9.50
2018-12-06T13:03:13.805Z,10.40
2018-12-06T13:05:51.180Z,10.10
2018-12-06T13:08:24.710Z,9.87
2018-12-06T13:13:51.451Z,9.43
2018-12-06T13:16:24.695Z,9.55
2018-12-06T13:18:59.877Z,9.60
2018-12-06T13:21:35.736Z,8.77
2018-12-06T13:24:13.222Z,8.67
2018-12-06T13:29:30.993Z,9.30
2018-12-06T13:32:04.655Z,8.93
2018-12-06T13:34:41.790Z,9.53
2018-12-06T13:37:17.424Z,9.43
2018-12-06T13:39:51.369Z,9.90
2018-12-06T13:42:25.046Z,10.27
2018-12-06T13:45:00.288Z,10.30
2018-12-06T13:47:35.104Z,9.37
2018-12-06T13:50:07.350Z,10.13
2018-12-06T13:52:46.403Z,10.20
2018-12-06T13:55:18.418Z,9.07
2018-12-06T13:57:53.457Z,9.38
2018-12-06T14:00:27.878Z,10.45
2018-12-06T14:02:57.844Z,9.87
2018-12-06T14:05:37.700Z,9.50
2018-12-06T14:08:10.211Z,8.90
2018-12-06T14:10:43.799Z,9.00
2018-12-06T14:13:23.635Z,9.67
2018-12-06T14:15:53.697Z,8.03
2018-12-06T14:18:27.431Z,8.85
2018-12-06T14:21:03.823Z,8.70
2018-12-06T14:23:38.798Z,8.60
2018-12-06T14:26:15.138Z,8.60
2018-12-06T14:28:47.197Z,10.60
2018-12-06T14:31:19.264Z,9.17
2018-12-06T14:33:53.240Z,9.50
2018-12-06T14:36:26.565Z,9.03
2018-12-06T14:39:01.604Z,7.87
2018-12-06T14:41:37.849Z,9.43
2018-12-06T14:44:21.162Z,8.20
2018-12-06T14:46:56.354Z,8.83
2018-12-06T14:49:29.724Z,8.27
2018-12-06T14:52:02.564Z,9.47
2018-12-06T14:54:35.256Z,6.90
2018-12-06T14:57:06.513Z,7.42
2018-12-06T14:59:41.246Z,7.92
2018-12-06T15:02:15.140Z,7.80
2018-12-06T15:04:46.648Z,8.37
2018-12-06T15:07:23.162Z,7.95
2018-12-06T15:09:59.500Z,8.65
2018-12-06T15:12:37.464Z,7.67
2018-12-06T15:15:14.211Z,7.13
2018-12-06T15:17:48.375Z,8.43
2018-12-06T15:20:21.419Z,8.53
2018-12-06T15:22:53.836Z,8.05
2018-12-06T15:25:25.762Z,8.00
2018-12-06T15:27:59.043Z,7.27
2018-12-06T15:30:34.186Z,7.40
2018-12-06T15:33:09.856Z,10.23
2018-12-06T15:35:46.298Z,11.63
2018-12-06T15:38:20.165Z,12.00
2018-12-06T15:40:58.055Z,8.84
2018-12-06T15:46:35.460Z,11.80
2018-12-06T15:49:09.917Z,9.28
2018-12-06T15:54:46.348Z,11.45
2018-12-06T15:57:21.045Z,13.80
2018-12-06T16:00:00.043Z,8.57
2018-12-06T16:02:37.910Z,10.10
2018-12-06T16:21:30.822Z,16.00
2018-12-06T16:24:01.210Z,13.25
2018-12-06T16:29:35.720Z,8.78
2018-12-06T16:32:17.495Z,9.18
2018-12-06T16:34:48.151Z,10.87
2018-12-06T16:37:24.408Z,9.90
2018-12-06T16:39:57.357Z,9.28
2018-12-06T16:42:36.027Z,8.90
2018-12-06T16:48:04.692Z,9.30
2018-12-06T16:50:37.585Z,10.40
2018-12-06T16:53:35.960Z,10.57
2018-12-06T16:56:14.848Z,10.88
2018-12-06T16:58:53.555Z,11.43
2018-12-06T17:17:45.251Z,11.50
2018-12-06T17:23:08.743Z,10.93
2018-12-06T17:25:45.618Z,9.95
2018-12-06T17:31:08.745Z,10.60
2018-12-06T17:33:38.743Z,11.07
2018-12-06T17:36:22.125Z,10.00
2018-12-06T17:38:53.826Z,11.30
2018-12-06T17:41:27.028Z,10.13
2018-12-06T17:44:00.257Z,10.90
2018-12-06T17:46:39.005Z,11.33
2018-12-06T17:49:23.249Z,10.82
2018-12-06T17:51:58.633Z,11.07
2018-12-06T17:54:33.669Z,11.27
2018-12-06T17:57:10.787Z,11.95
2018-12-06T17:59:41.135Z,12.70
2018-12-06T18:04:59.693Z,12.70
2018-12-06T18:07:35.947Z,13.37
2018-12-06T18:10:13.546Z,14.15
2018-12-06T18:12:48.150Z,12.80
2018-12-06T18:15:24.464Z,13.83
2018-12-06T18:17:59.732Z,12.30
2018-12-06T18:23:07.218Z,13.07
2018-12-06T18:25:47.539Z,13.35
2018-12-06T18:31:19.114Z,15.60
2018-12-06T18:33:54.085Z,13.97
2018-12-06T18:36:29.617Z,13.60
2018-12-06T18:39:00.266Z,15.80
2018-12-06T18:41:35.480Z,14.40
2018-12-06T18:44:12.815Z,15.50
2018-12-06T18:46:45.812Z,16.20
2018-12-06T18:49:18.744Z,15.30
2018-12-06T18:51:52.742Z,14.63
2018-12-06T18:54:23.180Z,15.97
2018-12-06T18:56:54.509Z,14.07
2018-12-06T18:59:24.703Z,16.70
2018-12-06T19:05:02.522Z,13.53
2018-12-06T19:07:39.014Z,15.78
2018-12-06T19:10:07.646Z,16.30
2018-12-06T19:12:38.075Z,14.33
2018-12-06T19:15:09.665Z,17.20
2018-12-06T19:17:41.976Z,16.48
2018-12-06T19:20:16.184Z,15.50
2018-12-06T19:22:46.396Z,15.40
2018-12-06T19:25:18.414Z,16.10
2018-12-06T19:27:48.387Z,14.23
2018-12-06T19:30:19.314Z,14.87
2018-12-06T19:32:49.833Z,15.23
2018-12-06T19:35:20.796Z,15.68
2018-12-06T19:37:51.109Z,14.37
2018-12-06T19:40:23.693Z,15.80
2018-12-06T19:42:54.690Z,14.10
2018-12-06T19:45:25.844Z,14.35
2018-12-06T19:47:56.778Z,14.37
2018-12-06T19:50:26.890Z,14.37
2018-12-06T19:52:57.298Z,13.50
2018-12-06T19:55:35.065Z,13.48
2018-12-06T19:58:07.058Z,13.20
2018-12-06T20:00:37.769Z,12.53
2018-12-06T20:03:09.005Z,14.33
2018-12-06T20:05:41.443Z,12.87
2018-12-06T20:08:14.152Z,13.83
2018-12-06T20:10:44.653Z,14.17
2018-12-06T20:13:14.705Z,12.90
2018-12-06T20:18:33.421Z,13.40
2018-12-06T20:21:04.594Z,14.17
2018-12-06T20:23:41.210Z,12.90
2018-12-06T20:26:17.559Z,12.67
2018-12-06T20:28:54.861Z,13.60
2018-12-06T20:31:30.811Z,12.77
2018-12-06T20:34:12.491Z,13.73
2018-12-06T20:36:43.810Z,14.07
2018-12-06T20:39:13.886Z,13.87
2018-12-06T20:41:46.863Z,13.67
2018-12-06T20:44:19.053Z,12.80
2018-12-06T20:46:49.556Z,13.30
2018-12-06T20:49:31.645Z,14.10
2018-12-06T20:52:02.392Z,12.60
2018-12-06T20:54:35.043Z,11.50
2018-12-06T20:57:12.743Z,12.30
2018-12-06T20:59:45.542Z,11.50
2018-12-06T21:02:18.177Z,11.30
2018-12-06T21:04:50.247Z,12.50
2018-12-06T21:07:20.415Z,11.53
2018-12-06T21:09:52.212Z,12.40
2018-12-06T21:12:22.538Z,12.90
2018-12-06T21:14:55.020Z,12.00
2018-12-06T21:17:26.401Z,11.27
2018-12-06T21:20:00.199Z,11.20
2018-12-06T21:22:46.487Z,10.10
2018-12-06T21:25:24.279Z,18.90
2018-12-06T21:27:58.356Z,19.40
2018-12-06T21:30:30.671Z,12.10
2018-12-06T21:36:36.848Z,11.03
2018-12-06T21:39:09.135Z,11.97
2018-12-06T21:41:38.944Z,12.60
2018-12-06T21:44:09.026Z,10.10
2018-12-06T21:46:39.877Z,11.03
2018-12-06T21:49:10.707Z,10.33
2018-12-06T21:51:44.477Z,9.38
2018-12-06T21:54:20.047Z,9.77
2018-12-06T21:56:55.337Z,9.88
2018-12-06T21:59:26.409Z,9.30
2018-12-06T22:02:09.120Z,10.00
2018-12-06T22:04:40.513Z,9.60
2018-12-06T22:07:14.747Z,9.10
2018-12-06T22:09:46.921Z,9.50
2018-12-06T22:12:20.306Z,8.58
2018-12-06T22:14:53.777Z,9.90
2018-12-06T22:17:27.853Z,10.30
2018-12-06T22:20:03.024Z,9.40
2018-12-06T22:22:33.684Z,9.25
2018-12-06T22:25:07.366Z,9.60
2018-12-06T22:27:39.342Z,10.40
2018-12-06T22:30:17.438Z,9.67
2018-12-06T22:32:49.826Z,10.57
2018-12-06T22:35:22.935Z,9.87
2018-12-06T22:38:04.724Z,10.07
2018-12-06T22:43:14.899Z,10.60
2018-12-06T22:46:04.841Z,11.33
2018-12-06T22:48:35.335Z,11.38
2018-12-06T22:51:08.857Z,10.50
2018-12-06T22:53:39.181Z,9.83
2018-12-06T22:56:09.344Z,10.02
2018-12-06T22:58:46.862Z,11.70
2018-12-06T23:01:20.333Z,10.60
2018-12-06T23:03:51.564Z,12.00
2018-12-06T23:06:27.456Z,11.15
2018-12-06T23:09:05.613Z,11.53
2018-12-06T23:11:39.380Z,11.60
2018-12-06T23:14:10.444Z,11.10
2018-12-06T23:16:39.883Z,10.87
2018-12-06T23:19:16.862Z,13.13
2018-12-06T23:21:52.825Z,9.93
2018-12-06T23:24:27.533Z,11.73
2018-12-06T23:27:00.301Z,14.73
2018-12-06T23:29:34.121Z,11.47
2018-12-06T23:32:05.069Z,12.87
2018-12-06T23:34:43.430Z,12.55
2018-12-06T23:37:15.724Z,12.13
2018-12-06T23:39:45.773Z,11.77
2018-12-06T23:42:15.577Z,12.30
2018-12-06T23:44:48.544Z,12.93
2018-12-06T23:49:39.654Z,13.67
2018-12-06T23:52:11.306Z,12.30
2018-12-06T23:54:42.006Z,11.95
2018-12-06T23:57:13.393Z,11.75
2018-12-06T23:59:43.138Z,12.97
